Portada
METAR-TAF:

METAR-TAF

Aeroports :

Salalah, Oman

latitud: 17-02N, longitud: 054-05E, altitud: 20 m

Observació

L'informe es va fer fa 1 hora i 9 minuts, a les 14:50 UTC
Vent 5 kt del Sud/Sud-Est
Temperatura 24°C
Humitat 69%
Pressió 1016 hPa
Visibilitat 10 km o més
Núvols disperses a una alçada de 2500 ft

METAR: OOSA 181450Z 16005KT 9999 SCT025 24/18 Q1016 NOSIG

Hora: 19:59 (15:59 UTC)

Pronòstic

L'informe es va fer fa 4 hores i 34 minuts, a les 11:25 UTC
Pronòstic vàlid del 18 a les 12 UTC al 19 a les 18 UTC
Vent 7 kt del Sud/Sud-Est
Visibilitat 10 km o més
sense núvols per sota de 1500 mi sense presència de cumulonimbus.
Evolucionant progressivament
l' 18 a les 15 UTC al 18 a les 17 UTC
Vent 3 kt amb direcció variable
Evolucionant progressivament
l' 19 a les 07 UTC al 19 a les 09 UTC
Vent 8 kt del Sud

TAF: OOSA 181125Z 1812/1918 16007KT CAVOK BECMG 1815/1817 VRB03KT BECMG 1907/1909 18008KT

Observacions i pronòstics meteorològics de més de 4000 aeroports (METAR i TAF).

Les estacions disponibles són els punts grocs i vermells al mapa.

Posi el ratolí al punt desitjat per veure el nom de l'estació.

Feu clic per veure les observacions i els pronòstics meteorològics.

Per canviar el mapa: feu clic els botons verds amb una creu de color negre per apropar; al botó verd amb un guió per allunyar la imatge; o en les fletxes verdes per a mapes adjacents.


METAR-TAF: